Time;durP1;ratioP1;P1;durP2;ratioP2;P2;SDS_P1;SDS_P2;PMS_P1;PMS_P2;Temp;Humidity;BMP_temperature;BMP_pressure;BME280_temperature;BME280_humidity;BME280_pressure;Samples;Min_cycle;Max_cycle;Signal;HPM_P1;HPM_P2
2023/09/08 00:01:33;;;;;;;8.95;8.05;;;;;;;;;;5017854;28;20017;-60
2023/09/08 00:03:58;;;;;;;10.65;8.25;;;;;;;;;;5033781;28;20048;-60
2023/09/08 00:06:24;;;;;;;10.57;8.30;;;;;;;;;;5034866;28;20038;-60
2023/09/08 00:08:50;;;;;;;12.05;8.38;;;;;;;;;;5035100;28;20042;-59
2023/09/08 00:11:15;;;;;;;12.70;8.60;;;;;;;;;;5034895;28;20083;-60
2023/09/08 00:13:41;;;;;;;8.15;7.15;;;;;;;;;;5035140;28;20445;-60
2023/09/08 00:16:07;;;;;;;11.40;7.93;;;;;;;;;;5035412;28;20438;-60
2023/09/08 00:18:33;;;;;;;9.98;8.52;;;;;;;;;;5034857;28;20025;-59
2023/09/08 00:20:58;;;;;;;15.23;8.85;;;;;;;;;;5034841;28;20033;-59
2023/09/08 00:23:23;;;;;;;12.35;8.30;;;;;;;;;;5034850;28;20041;-58
2023/09/08 00:25:51;;;;;;;11.02;8.50;;;;;;;;;;5034966;28;20036;-58
2023/09/08 00:28:16;;;;;;;9.05;8.10;;;;;;;;;;5034815;28;20458;-58
2023/09/08 00:30:42;;;;;;;12.15;8.52;;;;;;;;;;5034262;28;20032;-59
2023/09/08 00:33:08;;;;;;;11.85;7.82;;;;;;;;;;5017118;28;20018;-59
2023/09/08 00:35:35;;;;;;;8.50;7.13;;;;;;;;;;5016564;28;20021;-59
2023/09/08 00:38:00;;;;;;;10.10;7.75;;;;;;;;;;5017331;28;20028;-60
2023/09/08 00:40:27;;;;;;;9.95;7.75;;;;;;;;;;5034879;28;20109;-60
2023/09/08 00:42:52;;;;;;;10.57;7.57;;;;;;;;;;5034469;28;20029;-59
2023/09/08 00:45:26;;;;;;;9.57;7.32;;;;;;;;;;5034545;28;20115;-59
2023/09/08 00:47:51;;;;;;;8.10;7.05;;;;;;;;;;5034470;28;20338;-58
2023/09/08 00:50:17;;;;;;;8.80;7.60;;;;;;;;;;5016931;28;20079;-59
2023/09/08 00:52:43;;;;;;;9.25;8.30;;;;;;;;;;5034371;28;20254;-60
2023/09/08 00:55:08;;;;;;;11.27;8.80;;;;;;;;;;5033910;28;20087;-60
2023/09/08 00:57:34;;;;;;;14.23;9.35;;;;;;;;;;5034443;28;20025;-60
2023/09/08 01:00:00;;;;;;;10.52;8.90;;;;;;;;;;5016654;28;20061;-60
2023/09/08 01:02:27;;;;;;;11.10;8.90;;;;;;;;;;5034211;28;20057;-60
2023/09/08 01:04:52;;;;;;;11.38;8.63;;;;;;;;;;5033985;28;20076;-60
2023/09/08 01:07:19;;;;;;;11.95;8.80;;;;;;;;;;5015782;28;20041;-60
2023/09/08 01:09:47;;;;;;;12.75;8.88;;;;;;;;;;5016297;28;20531;-60
2023/09/08 01:12:12;;;;;;;11.07;8.82;;;;;;;;;;5033922;28;20033;-60
2023/09/08 01:14:38;;;;;;;10.65;8.50;;;;;;;;;;5033617;28;20041;-60
2023/09/08 01:17:04;;;;;;;12.57;8.95;;;;;;;;;;5016259;28;20033;-60
2023/09/08 01:19:29;;;;;;;9.38;8.38;;;;;;;;;;4999543;28;20121;-59
2023/09/08 01:22:00;;;;;;;12.77;9.30;;;;;;;;;;5033958;28;20033;-59
2023/09/08 01:24:45;;;;;;;12.57;8.95;;;;;;;;;;5033878;28;20065;-59
2023/09/08 01:27:12;;;;;;;9.13;6.75;;;;;;;;;;5016290;28;20026;-59
2023/09/08 01:29:38;;;;;;;6.78;6.07;;;;;;;;;;5033925;28;20079;-59
2023/09/08 01:32:04;;;;;;;7.47;6.68;;;;;;;;;;5033911;28;20042;-59
2023/09/08 01:34:30;;;;;;;8.98;6.80;;;;;;;;;;4999771;28;20028;-60
2023/09/08 01:36:56;;;;;;;8.07;7.10;;;;;;;;;;5034163;28;20442;-68
2023/09/08 01:39:22;;;;;;;8.93;7.50;;;;;;;;;;5016088;28;20425;-68
2023/09/08 01:41:47;;;;;;;8.75;7.93;;;;;;;;;;5034045;28;20060;-68
2023/09/08 01:44:13;;;;;;;10.35;8.10;;;;;;;;;;5015790;28;20018;-68
2023/09/08 01:46:40;;;;;;;10.65;9.23;;;;;;;;;;5016061;28;20029;-68
2023/09/08 01:49:06;;;;;;;11.15;9.05;;;;;;;;;;5033613;28;20018;-68
2023/09/08 01:51:31;;;;;;;11.10;8.77;;;;;;;;;;5033848;28;20067;-68
2023/09/08 01:53:56;;;;;;;12.38;9.45;;;;;;;;;;5016009;28;20018;-69
2023/09/08 01:56:22;;;;;;;14.98;11.18;;;;;;;;;;5033684;28;20025;-69
2023/09/08 01:58:48;;;;;;;14.80;11.88;;;;;;;;;;5016280;28;20115;-69
2023/09/08 02:01:14;;;;;;;17.25;11.90;;;;;;;;;;5015900;28;20466;-69
2023/09/08 02:03:39;;;;;;;15.73;12.15;;;;;;;;;;5016040;28;20033;-69
2023/09/08 02:06:05;;;;;;;14.65;12.07;;;;;;;;;;5015511;28;20034;-67
2023/09/08 02:08:30;;;;;;;15.85;11.20;;;;;;;;;;4999631;28;20068;-67
2023/09/08 02:10:55;;;;;;;15.48;11.38;;;;;;;;;;5015730;28;20064;-67
2023/09/08 02:13:21;;;;;;;13.80;11.50;;;;;;;;;;5015727;28;20029;-66
2023/09/08 02:15:49;;;;;;;17.27;11.93;;;;;;;;;;5015551;28;20052;-65
2023/09/08 02:18:14;;;;;;;14.13;11.18;;;;;;;;;;5033188;28;20026;-65
2023/09/08 02:20:52;;;;;;;14.38;11.13;;;;;;;;;;5015335;28;20034;-65
2023/09/08 02:23:17;;;;;;;13.57;10.90;;;;;;;;;;5033068;28;20384;-64
2023/09/08 02:25:43;;;;;;;15.45;11.35;;;;;;;;;;5033035;28;20021;-64
2023/09/08 02:28:08;;;;;;;15.40;11.60;;;;;;;;;;5036395;28;20033;-64
2023/09/08 02:30:34;;;;;;;15.20;10.82;;;;;;;;;;5019141;28;20021;-65
2023/09/08 02:33:00;;;;;;;15.15;9.52;;;;;;;;;;5019547;28;20018;-65
2023/09/08 02:35:25;;;;;;;13.20;9.52;;;;;;;;;;5019250;28;20037;-64
2023/09/08 02:37:52;;;;;;;12.25;8.88;;;;;;;;;;5019068;28;20026;-58
2023/09/08 02:40:20;;;;;;;13.55;9.23;;;;;;;;;;5021319;28;20113;-58
2023/09/08 02:42:46;;;;;;;10.23;8.82;;;;;;;;;;5056381;28;20040;-58
2023/09/08 02:45:11;;;;;;;11.48;8.88;;;;;;;;;;5041510;23;20053;-60
2023/09/08 02:47:37;;;;;;;13.88;9.60;;;;;;;;;;5039610;23;20343;-60
2023/09/08 02:52:45;;;;;;;12.55;9.90;;;;;;;;;;4969212;23;20552;-66
2023/09/08 02:55:11;;;;;;;12.00;9.57;;;;;;;;;;5038290;23;20053;-66
2023/09/08 02:57:39;;;;;;;13.30;10.75;;;;;;;;;;5041826;23;20061;-66
2023/09/08 03:00:07;;;;;;;12.40;9.80;;;;;;;;;;5036355;28;20028;-66
2023/09/08 03:02:33;;;;;;;11.27;9.20;;;;;;;;;;5002049;28;20033;-68
2023/09/08 03:05:00;;;;;;;10.55;9.10;;;;;;;;;;5018809;28;20072;-68
2023/09/08 03:07:26;;;;;;;10.60;8.88;;;;;;;;;;5018174;28;20511;-67
2023/09/08 03:09:51;;;;;;;10.18;8.77;;;;;;;;;;5035910;28;20022;-67
2023/09/08 03:12:16;;;;;;;9.48;8.48;;;;;;;;;;5017998;28;20488;-65
2023/09/08 03:14:42;;;;;;;11.18;8.85;;;;;;;;;;5018084;28;20010;-65
2023/09/08 03:17:07;;;;;;;12.25;9.55;;;;;;;;;;5018048;28;20026;-66
2023/09/08 03:19:34;;;;;;;11.48;8.95;;;;;;;;;;5036248;28;20361;-66
2023/09/08 03:21:59;;;;;;;11.43;8.30;;;;;;;;;;5035933;28;20057;-67
2023/09/08 03:24:24;;;;;;;12.52;8.98;;;;;;;;;;5017897;28;20473;-67
2023/09/08 03:26:50;;;;;;;11.65;8.82;;;;;;;;;;5017731;28;20028;-66
2023/09/08 03:29:15;;;;;;;11.90;8.23;;;;;;;;;;5001516;28;20542;-65
2023/09/08 03:31:40;;;;;;;11.68;8.98;;;;;;;;;;5017786;28;20052;-66
2023/09/08 03:34:06;;;;;;;11.00;8.43;;;;;;;;;;5018533;28;20083;-66
2023/09/08 03:36:35;;;;;;;10.88;8.27;;;;;;;;;;5017665;28;20030;-65
2023/09/08 03:39:01;;;;;;;9.40;7.88;;;;;;;;;;5017367;28;20033;-65
2023/09/08 03:41:28;;;;;;;13.20;8.05;;;;;;;;;;5035569;28;20040;-66
2023/09/08 03:43:53;;;;;;;9.43;8.23;;;;;;;;;;5017527;28;20022;-66
2023/09/08 03:46:19;;;;;;;10.50;8.73;;;;;;;;;;5035241;28;20041;-65
2023/09/08 03:48:44;;;;;;;12.13;8.45;;;;;;;;;;5035155;28;20026;-67
2023/09/08 03:51:09;;;;;;;8.18;7.30;;;;;;;;;;5017012;28;20018;-65
2023/09/08 03:53:35;;;;;;;9.30;7.07;;;;;;;;;;5017253;28;20029;-65
2023/09/08 03:56:00;;;;;;;8.77;7.20;;;;;;;;;;5017300;28;20026;-65
2023/09/08 03:58:26;;;;;;;11.20;7.32;;;;;;;;;;5017041;28;20038;-66
2023/09/08 04:00:51;;;;;;;8.73;7.30;;;;;;;;;;5034729;28;20053;-66
2023/09/08 04:03:17;;;;;;;10.57;8.25;;;;;;;;;;5017469;28;20037;-65
2023/09/08 04:05:42;;;;;;;8.93;7.43;;;;;;;;;;5017290;28;20071;-66
2023/09/08 04:08:07;;;;;;;9.68;7.35;;;;;;;;;;5034290;28;20040;-67
2023/09/08 04:10:33;;;;;;;10.20;7.47;;;;;;;;;;5016330;28;20116;-65
2023/09/08 04:12:58;;;;;;;8.48;7.20;;;;;;;;;;5016452;28;20044;-65
2023/09/08 04:15:24;;;;;;;11.63;8.70;;;;;;;;;;5016559;28;20424;-65
2023/09/08 04:17:49;;;;;;;12.45;8.30;;;;;;;;;;5016405;28;20112;-65
2023/09/08 04:20:15;;;;;;;10.23;8.38;;;;;;;;;;5034314;28;20025;-66
2023/09/08 04:22:40;;;;;;;10.95;9.18;;;;;;;;;;5016070;28;20067;-64
2023/09/08 04:25:06;;;;;;;13.60;9.68;;;;;;;;;;5016439;28;20026;-64
2023/09/08 04:27:32;;;;;;;13.05;7.55;;;;;;;;;;5016215;28;20124;-65
2023/09/08 04:29:59;;;;;;;11.18;7.30;;;;;;;;;;4997536;28;20108;-65
2023/09/08 04:32:24;;;;;;;8.07;7.28;;;;;;;;;;5010157;28;20589;-65
2023/09/08 04:34:50;;;;;;;7.93;7.13;;;;;;;;;;5015151;28;20025;-65
2023/09/08 04:37:16;;;;;;;7.47;6.65;;;;;;;;;;5015462;28;20021;-65
2023/09/08 04:39:43;;;;;;;7.50;6.75;;;;;;;;;;5015115;28;20029;-64
2023/09/08 04:42:09;;;;;;;9.13;7.55;;;;;;;;;;5015336;28;20033;-64
2023/09/08 04:44:34;;;;;;;8.40;7.03;;;;;;;;;;5015080;28;20405;-64
2023/09/08 04:47:00;;;;;;;7.95;7.18;;;;;;;;;;4998503;28;20457;-64
2023/09/08 04:49:26;;;;;;;9.07;7.75;;;;;;;;;;5003613;28;20026;-64
2023/09/08 04:51:51;;;;;;;10.52;7.85;;;;;;;;;;5012718;28;20034;-64
2023/09/08 04:54:19;;;;;;;9.68;7.57;;;;;;;;;;4995483;28;20080;-65
2023/09/08 04:56:46;;;;;;;10.95;8.50;;;;;;;;;;4995355;28;20041;-65
2023/09/08 04:59:13;;;;;;;8.60;7.68;;;;;;;;;;4995157;28;20042;-65
2023/09/08 05:01:39;;;;;;;10.30;8.15;;;;;;;;;;5012766;28;20051;-66
2023/09/08 05:04:07;;;;;;;12.52;9.40;;;;;;;;;;5001631;28;20064;-66
2023/09/08 05:06:32;;;;;;;16.25;11.38;;;;;;;;;;5014494;28;20079;-72
2023/09/08 05:08:59;;;;;;;15.23;10.52;;;;;;;;;;5014746;28;20013;-72
2023/09/08 05:11:26;;;;;;;13.18;10.63;;;;;;;;;;4998467;28;20068;-62
2023/09/08 05:13:53;;;;;;;17.20;11.77;;;;;;;;;;5014577;28;20044;-64
2023/09/08 05:16:25;;;;;;;14.85;11.40;;;;;;;;;;5032420;28;20117;-63
2023/09/08 05:18:51;;;;;;;16.33;11.80;;;;;;;;;;5014270;28;20037;-63
2023/09/08 05:21:16;;;;;;;16.45;11.45;;;;;;;;;;5015018;28;20060;-64
2023/09/08 05:23:42;;;;;;;17.55;11.32;;;;;;;;;;4998283;28;20045;-64
2023/09/08 05:26:09;;;;;;;15.38;10.80;;;;;;;;;;5013431;28;20057;-64
2023/09/08 05:28:34;;;;;;;13.05;9.73;;;;;;;;;;5014112;28;20053;-64
2023/09/08 05:31:00;;;;;;;13.90;10.45;;;;;;;;;;5025642;28;20040;-64
2023/09/08 05:33:25;;;;;;;14.52;10.75;;;;;;;;;;4994811;28;20390;-65
2023/09/08 05:35:51;;;;;;;16.33;11.20;;;;;;;;;;5003070;28;20026;-66
2023/09/08 05:38:17;;;;;;;16.35;11.02;;;;;;;;;;4995271;28;20025;-65
2023/09/08 05:40:43;;;;;;;14.27;10.68;;;;;;;;;;4997097;28;20021;-65
2023/09/08 05:43:08;;;;;;;15.60;11.25;;;;;;;;;;5014624;28;20462;-65
2023/09/08 05:45:34;;;;;;;19.17;11.23;;;;;;;;;;5014266;28;20022;-65
2023/09/08 05:48:00;;;;;;;17.30;10.43;;;;;;;;;;5014398;28;20057;-65
2023/09/08 05:50:27;;;;;;;12.95;10.35;;;;;;;;;;4997942;28;20033;-65
2023/09/08 05:52:52;;;;;;;14.93;10.88;;;;;;;;;;4998029;28;20036;-65
2023/09/08 05:55:18;;;;;;;15.38;10.90;;;;;;;;;;5014281;28;20029;-65
2023/09/08 05:57:43;;;;;;;14.52;10.52;;;;;;;;;;5012997;28;20064;-65
2023/09/08 06:00:09;;;;;;;13.05;10.60;;;;;;;;;;5013707;28;20128;-65
2023/09/08 06:02:45;;;;;;;13.18;10.95;;;;;;;;;;5018349;28;20021;-65
2023/09/08 06:05:13;;;;;;;14.63;11.10;;;;;;;;;;5019010;28;20047;-65
2023/09/08 06:07:38;;;;;;;18.02;11.55;;;;;;;;;;5018844;28;20108;-65
2023/09/08 06:10:04;;;;;;;16.02;10.98;;;;;;;;;;5018733;28;20428;-65
2023/09/08 06:12:30;;;;;;;15.38;10.40;;;;;;;;;;5019168;28;20064;-65
2023/09/08 06:14:55;;;;;;;14.68;9.88;;;;;;;;;;5018895;28;20033;-65
2023/09/08 06:17:21;;;;;;;14.15;9.15;;;;;;;;;;5036636;28;20033;-65
2023/09/08 06:19:46;;;;;;;13.15;9.88;;;;;;;;;;5036538;28;20018;-65
2023/09/08 06:22:12;;;;;;;13.07;8.98;;;;;;;;;;5002399;28;20037;-65
2023/09/08 06:24:37;;;;;;;14.60;9.90;;;;;;;;;;5018801;28;20405;-65
2023/09/08 06:27:02;;;;;;;13.38;9.68;;;;;;;;;;5018978;28;20025;-65
2023/09/08 06:29:28;;;;;;;11.25;9.40;;;;;;;;;;5018659;28;20397;-65
2023/09/08 06:31:54;;;;;;;9.25;8.32;;;;;;;;;;5002246;28;20108;-65
2023/09/08 06:34:22;;;;;;;13.27;9.07;;;;;;;;;;5018865;28;20541;-65
2023/09/08 06:36:47;;;;;;;13.90;9.23;;;;;;;;;;5018504;28;20358;-65
2023/09/08 06:39:13;;;;;;;13.25;9.23;;;;;;;;;;5018823;28;20017;-65
2023/09/08 06:41:38;;;;;;;10.02;8.52;;;;;;;;;;5018456;28;20545;-65
2023/09/08 06:44:05;;;;;;;12.45;8.13;;;;;;;;;;5018316;28;20033;-65
2023/09/08 06:46:30;;;;;;;9.90;8.38;;;;;;;;;;5036174;28;20038;-65
2023/09/08 06:48:56;;;;;;;9.40;8.30;;;;;;;;;;5036031;28;20037;-65
2023/09/08 06:51:21;;;;;;;11.45;8.98;;;;;;;;;;5018248;28;20032;-65
2023/09/08 06:53:57;;;;;;;11.13;8.35;;;;;;;;;;5018192;28;20025;-65
2023/09/08 06:56:26;;;;;;;10.45;7.95;;;;;;;;;;5018420;28;20033;-65
2023/09/08 06:58:52;;;;;;;14.00;8.35;;;;;;;;;;5014843;28;20107;-65
2023/09/08 07:01:18;;;;;;;9.55;8.55;;;;;;;;;;5014789;28;20040;-65
2023/09/08 07:03:44;;;;;;;10.43;8.02;;;;;;;;;;5014722;28;20481;-65
2023/09/08 07:06:11;;;;;;;10.88;7.85;;;;;;;;;;5014785;28;20083;-65
2023/09/08 07:08:36;;;;;;;11.50;8.10;;;;;;;;;;5015936;28;20537;-65
2023/09/08 07:11:02;;;;;;;9.80;8.50;;;;;;;;;;5014479;28;20437;-65
2023/09/08 07:13:28;;;;;;;10.48;7.95;;;;;;;;;;5013921;28;20060;-65
2023/09/08 07:15:53;;;;;;;11.93;8.60;;;;;;;;;;5015768;28;20022;-65
2023/09/08 07:18:20;;;;;;;10.23;8.30;;;;;;;;;;5014476;28;20038;-65
2023/09/08 07:20:47;;;;;;;13.38;9.15;;;;;;;;;;5014385;28;20430;-65
2023/09/08 07:23:13;;;;;;;18.98;11.57;;;;;;;;;;5014671;28;20030;-65
2023/09/08 07:25:38;;;;;;;13.75;9.75;;;;;;;;;;5014375;28;20478;-65
2023/09/08 07:28:04;;;;;;;10.02;8.20;;;;;;;;;;5015575;28;20033;-65
2023/09/08 07:30:31;;;;;;;11.15;7.93;;;;;;;;;;5014511;28;20025;-65
2023/09/08 07:32:57;;;;;;;10.77;7.57;;;;;;;;;;5015345;28;20068;-65
2023/09/08 07:35:24;;;;;;;11.77;8.15;;;;;;;;;;5014147;28;20454;-65
2023/09/08 07:37:49;;;;;;;14.27;8.63;;;;;;;;;;5014045;28;20096;-65
2023/09/08 07:40:15;;;;;;;8.90;7.57;;;;;;;;;;5014157;28;20026;-65
2023/09/08 07:42:40;;;;;;;10.48;8.40;;;;;;;;;;5014039;28;20026;-65
2023/09/08 07:45:06;;;;;;;13.35;7.57;;;;;;;;;;5013983;28;20445;-65
2023/09/08 07:47:31;;;;;;;14.25;9.88;;;;;;;;;;5015218;28;20040;-65
2023/09/08 07:50:15;;;;;;;10.90;8.35;;;;;;;;;;5015120;28;20034;-65
2023/09/08 07:52:41;;;;;;;11.02;7.43;;;;;;;;;;5015117;28;20116;-65
2023/09/08 07:55:06;;;;;;;11.60;7.43;;;;;;;;;;5014967;28;20100;-65
2023/09/08 07:57:31;;;;;;;9.45;7.15;;;;;;;;;;5016114;28;20048;-65
2023/09/08 07:59:57;;;;;;;9.82;7.55;;;;;;;;;;5034694;28;20063;-65
2023/09/08 08:02:22;;;;;;;9.52;7.15;;;;;;;;;;5034576;28;20131;-65
2023/09/08 08:04:47;;;;;;;9.75;6.60;;;;;;;;;;5034548;28;20076;-65
2023/09/08 08:07:13;;;;;;;8.48;6.72;;;;;;;;;;5034565;28;20075;-65
2023/09/08 08:09:38;;;;;;;9.80;7.40;;;;;;;;;;5034531;28;20037;-65
2023/09/08 08:12:03;;;;;;;13.32;8.70;;;;;;;;;;5034404;28;20029;-65
2023/09/08 08:14:29;;;;;;;12.43;7.22;;;;;;;;;;5016747;28;20056;-65
2023/09/08 08:16:54;;;;;;;9.93;7.47;;;;;;;;;;5016707;28;20541;-65
2023/09/08 08:19:19;;;;;;;10.25;8.05;;;;;;;;;;5034332;28;20484;-65
2023/09/08 08:21:45;;;;;;;15.15;10.73;;;;;;;;;;5034231;28;20528;-65
2023/09/08 08:24:10;;;;;;;11.18;7.15;;;;;;;;;;5033324;28;20525;-65
2023/09/08 08:26:35;;;;;;;9.55;6.32;;;;;;;;;;5034174;28;20480;-65
2023/09/08 08:29:01;;;;;;;9.30;6.85;;;;;;;;;;5016420;28;20041;-65
2023/09/08 08:31:26;;;;;;;8.43;6.47;;;;;;;;;;5033967;28;20025;-65
2023/09/08 08:33:51;;;;;;;8.30;6.10;;;;;;;;;;5034063;28;20421;-65
2023/09/08 08:36:17;;;;;;;13.02;8.70;;;;;;;;;;5033993;28;20056;-65
2023/09/08 08:38:42;;;;;;;8.00;6.15;;;;;;;;;;5034045;28;20132;-65
2023/09/08 08:41:07;;;;;;;11.38;6.22;;;;;;;;;;5033880;28;20358;-65
2023/09/08 08:43:33;;;;;;;8.02;5.70;;;;;;;;;;5033854;28;20037;-65
2023/09/08 08:45:59;;;;;;;8.55;6.03;;;;;;;;;;5016306;28;20112;-65
2023/09/08 08:48:25;;;;;;;13.10;7.90;;;;;;;;;;5033796;28;20092;-65
2023/09/08 08:50:52;;;;;;;7.30;6.20;;;;;;;;;;5033695;28;20037;-65
2023/09/08 08:53:19;;;;;;;6.82;6.03;;;;;;;;;;5033794;28;20112;-65
2023/09/08 08:55:44;;;;;;;7.05;5.18;;;;;;;;;;5033711;28;20076;-65
2023/09/08 08:58:10;;;;;;;7.30;5.53;;;;;;;;;;5033711;28;20042;-65
2023/09/08 09:00:36;;;;;;;6.32;5.70;;;;;;;;;;5033676;28;20022;-65
2023/09/08 09:03:04;;;;;;;8.00;5.53;;;;;;;;;;5033582;28;20113;-65
2023/09/08 09:05:29;;;;;;;8.35;6.00;;;;;;;;;;5033564;28;20026;-65
2023/09/08 09:07:57;;;;;;;6.13;5.13;;;;;;;;;;5033460;28;20026;-65
2023/09/08 09:10:23;;;;;;;7.95;5.38;;;;;;;;;;5033465;28;20025;-65
2023/09/08 09:12:48;;;;;;;6.88;5.78;;;;;;;;;;5033594;28;20087;-65
2023/09/08 09:15:13;;;;;;;7.63;5.88;;;;;;;;;;5033411;28;20022;-65
2023/09/08 09:17:39;;;;;;;6.70;5.70;;;;;;;;;;5033395;28;20009;-65
2023/09/08 09:20:14;;;;;;;8.00;6.07;;;;;;;;;;5033303;28;20034;-65
2023/09/08 09:22:40;;;;;;;16.75;9.65;;;;;;;;;;5015738;28;20025;-65
2023/09/08 09:25:07;;;;;;;9.40;6.07;;;;;;;;;;5033220;28;20508;-65
2023/09/08 09:27:33;;;;;;;8.57;5.97;;;;;;;;;;5033321;28;20033;-65
2023/09/08 09:29:59;;;;;;;7.03;5.90;;;;;;;;;;5033232;28;20124;-65
2023/09/08 09:32:25;;;;;;;8.05;5.60;;;;;;;;;;5033024;28;20053;-65
2023/09/08 09:34:53;;;;;;;8.73;5.90;;;;;;;;;;5033667;28;20017;-65
2023/09/08 09:37:18;;;;;;;7.72;6.30;;;;;;;;;;5039841;28;20100;-65
2023/09/08 09:39:47;;;;;;;9.02;5.65;;;;;;;;;;5022056;28;20056;-65
2023/09/08 09:42:13;;;;;;;42.67;22.50;;;;;;;;;;5039811;28;20068;-65
2023/09/08 09:44:40;;;;;;;11.18;7.78;;;;;;;;;;5039754;28;20057;-65
2023/09/08 09:47:06;;;;;;;10.77;5.93;;;;;;;;;;5039668;28;20112;-65
2023/09/08 09:49:32;;;;;;;7.47;6.15;;;;;;;;;;5039647;28;20443;-65
2023/09/08 09:51:58;;;;;;;7.80;5.93;;;;;;;;;;5039622;28;20040;-65
2023/09/08 09:54:23;;;;;;;9.45;5.57;;;;;;;;;;5039656;28;20076;-65
2023/09/08 09:56:50;;;;;;;9.70;5.90;;;;;;;;;;5039822;28;20037;-65
2023/09/08 09:59:15;;;;;;;4.78;4.28;;;;;;;;;;5039467;28;20053;-65
2023/09/08 10:01:42;;;;;;;6.95;4.75;;;;;;;;;;5021743;28;20428;-65
2023/09/08 10:04:08;;;;;;;7.10;4.72;;;;;;;;;;5039495;28;20489;-65
2023/09/08 10:06:34;;;;;;;5.40;4.88;;;;;;;;;;5039502;28;20112;-65
2023/09/08 10:09:01;;;;;;;5.18;4.53;;;;;;;;;;5039505;28;20056;-65
2023/09/08 10:11:28;;;;;;;4.95;4.50;;;;;;;;;;5039388;28;20041;-65
2023/09/08 10:13:55;;;;;;;5.50;4.63;;;;;;;;;;5039490;28;20025;-65
2023/09/08 10:16:20;;;;;;;7.60;5.28;;;;;;;;;;5021969;28;20025;-65
2023/09/08 10:18:47;;;;;;;6.53;5.82;;;;;;;;;;5039407;28;20034;-65
2023/09/08 10:21:14;;;;;;;7.35;5.35;;;;;;;;;;5039365;28;20033;-65
2023/09/08 10:23:42;;;;;;;5.05;4.07;;;;;;;;;;5039354;28;20163;-65
2023/09/08 10:26:09;;;;;;;5.63;5.00;;;;;;;;;;5039449;28;20102;-65
2023/09/08 10:28:35;;;;;;;4.78;4.30;;;;;;;;;;5039308;28;20037;-66
2023/09/08 10:31:01;;;;;;;5.65;4.40;;;;;;;;;;5039211;28;20029;-66
2023/09/08 10:33:26;;;;;;;5.70;4.38;;;;;;;;;;5039303;28;20033;-65
2023/09/08 10:35:52;;;;;;;7.75;4.90;;;;;;;;;;5039256;28;20030;-66
2023/09/08 10:38:22;;;;;;;5.32;4.50;;;;;;;;;;5039287;28;20083;-65
2023/09/08 10:40:49;;;;;;;6.40;4.25;;;;;;;;;;5021789;28;20350;-65
2023/09/08 10:43:14;;;;;;;4.78;4.30;;;;;;;;;;5039212;28;20436;-65
2023/09/08 10:45:41;;;;;;;5.10;4.45;;;;;;;;;;5021547;28;20082;-65
2023/09/08 10:48:06;;;;;;;6.70;4.63;;;;;;;;;;5035846;28;20052;-65
2023/09/08 10:50:33;;;;;;;4.50;4.10;;;;;;;;;;5036035;28;20045;-65
2023/09/08 10:53:05;;;;;;;4.18;3.75;;;;;;;;;;5035918;28;20045;-65
2023/09/08 10:55:41;;;;;;;5.22;4.10;;;;;;;;;;5036200;28;20031;-65
2023/09/08 10:58:09;;;;;;;5.60;4.32;;;;;;;;;;5035749;28;20124;-66
2023/09/08 11:00:45;;;;;;;5.22;4.72;;;;;;;;;;5035896;28;20021;-65
2023/09/08 11:03:11;;;;;;;6.45;4.45;;;;;;;;;;5018218;28;20064;-66
2023/09/08 11:05:36;;;;;;;7.68;4.82;;;;;;;;;;5035833;28;20053;-66
2023/09/08 11:08:01;;;;;;;5.78;4.85;;;;;;;;;;5035685;28;20033;-66
2023/09/08 11:10:27;;;;;;;5.78;4.45;;;;;;;;;;5035612;28;20025;-65
2023/09/08 11:12:53;;;;;;;6.38;4.70;;;;;;;;;;5035504;28;20026;-65
2023/09/08 11:15:19;;;;;;;7.03;4.03;;;;;;;;;;5035604;28;20044;-66
2023/09/08 11:17:44;;;;;;;7.57;4.65;;;;;;;;;;5035592;28;20022;-66
2023/09/08 11:20:12;;;;;;;7.03;5.30;;;;;;;;;;5017782;28;20037;-65
2023/09/08 11:22:38;;;;;;;7.40;5.40;;;;;;;;;;5017796;28;20473;-65
2023/09/08 11:25:06;;;;;;;5.50;4.88;;;;;;;;;;5001375;28;20026;-66
2023/09/08 11:27:31;;;;;;;8.32;5.35;;;;;;;;;;5035430;28;20037;-66
2023/09/08 11:29:57;;;;;;;6.57;5.60;;;;;;;;;;5017706;28;20040;-66
2023/09/08 11:32:23;;;;;;;5.75;4.85;;;;;;;;;;5035190;28;20447;-67
2023/09/08 11:34:48;;;;;;;10.25;5.38;;;;;;;;;;5017606;28;20103;-66
2023/09/08 11:37:15;;;;;;;5.00;4.32;;;;;;;;;;5035167;28;20428;-65
2023/09/08 11:39:41;;;;;;;6.55;4.90;;;;;;;;;;5017462;28;20075;-65
2023/09/08 11:42:07;;;;;;;4.95;4.55;;;;;;;;;;5035047;28;20033;-66
2023/09/08 11:44:33;;;;;;;6.57;4.60;;;;;;;;;;5034956;28;20388;-65
2023/09/08 11:46:59;;;;;;;5.25;4.75;;;;;;;;;;5017301;28;20033;-66
2023/09/08 11:49:25;;;;;;;5.95;5.03;;;;;;;;;;5034880;28;20076;-66
2023/09/08 11:51:50;;;;;;;5.50;5.00;;;;;;;;;;5034807;28;20021;-66
2023/09/08 11:54:17;;;;;;;6.88;4.90;;;;;;;;;;5034872;28;20033;-66
2023/09/08 11:56:42;;;;;;;5.65;5.03;;;;;;;;;;5017088;28;20056;-66
2023/09/08 11:59:08;;;;;;;5.32;4.80;;;;;;;;;;5034339;28;20092;-66
2023/09/08 12:01:33;;;;;;;4.80;4.32;;;;;;;;;;5034694;28;20033;-66
2023/09/08 12:03:59;;;;;;;7.93;5.03;;;;;;;;;;5034656;28;20037;-66
2023/09/08 12:06:27;;;;;;;5.22;4.50;;;;;;;;;;5034606;28;20026;-65
2023/09/08 12:08:53;;;;;;;8.25;5.22;;;;;;;;;;5034581;28;20116;-66
2023/09/08 12:11:18;;;;;;;5.55;4.85;;;;;;;;;;5034456;28;20544;-66
2023/09/08 12:13:44;;;;;;;5.38;4.53;;;;;;;;;;5016848;28;20033;-66
2023/09/08 12:16:19;;;;;;;6.43;4.88;;;;;;;;;;5034467;28;20022;-66
2023/09/08 12:18:45;;;;;;;5.82;4.97;;;;;;;;;;5034394;28;20439;-66
2023/09/08 12:21:10;;;;;;;6.20;4.80;;;;;;;;;;5034352;28;20370;-66
2023/09/08 12:23:46;;;;;;;4.70;4.30;;;;;;;;;;5034281;28;20076;-66
2023/09/08 12:26:12;;;;;;;7.72;5.35;;;;;;;;;;5034250;28;20041;-66
2023/09/08 12:28:37;;;;;;;5.30;4.80;;;;;;;;;;5034222;28;20113;-66
2023/09/08 12:31:03;;;;;;;4.97;4.47;;;;;;;;;;5034041;28;20057;-66
2023/09/08 12:33:28;;;;;;;5.85;4.50;;;;;;;;;;5034151;28;20033;-66
2023/09/08 12:35:53;;;;;;;5.93;4.70;;;;;;;;;;5034019;28;20033;-66
2023/09/08 12:38:19;;;;;;;5.30;4.80;;;;;;;;;;5016442;28;20479;-66
2023/09/08 12:40:44;;;;;;;7.30;5.30;;;;;;;;;;5033955;28;20022;-66
2023/09/08 12:43:09;;;;;;;6.95;5.05;;;;;;;;;;5033902;28;20113;-66
2023/09/08 12:45:35;;;;;;;5.75;4.35;;;;;;;;;;5033841;28;20477;-66
2023/09/08 12:48:02;;;;;;;5.05;4.32;;;;;;;;;;5033880;28;20389;-66
2023/09/08 12:50:28;;;;;;;5.15;4.65;;;;;;;;;;5034051;28;20044;-66
2023/09/08 12:52:53;;;;;;;5.00;4.50;;;;;;;;;;5033996;28;20026;-66
2023/09/08 12:55:19;;;;;;;6.18;4.35;;;;;;;;;;5016353;28;20029;-66
2023/09/08 12:57:44;;;;;;;5.57;4.80;;;;;;;;;;5033823;28;20474;-65
2023/09/08 13:00:09;;;;;;;9.40;5.00;;;;;;;;;;5016210;28;20112;-66
2023/09/08 13:02:35;;;;;;;5.32;4.55;;;;;;;;;;5033832;28;20052;-66
2023/09/08 13:05:01;;;;;;;5.30;4.80;;;;;;;;;;5014885;28;20132;-66
2023/09/08 13:07:26;;;;;;;5.50;4.50;;;;;;;;;;5032783;28;20029;-66
2023/09/08 13:09:52;;;;;;;6.88;4.80;;;;;;;;;;5014743;28;20037;-66
2023/09/08 13:12:17;;;;;;;4.85;4.15;;;;;;;;;;5032632;28;20030;-66
2023/09/08 13:14:43;;;;;;;7.10;4.45;;;;;;;;;;5015197;28;20029;-66
2023/09/08 13:17:11;;;;;;;5.35;4.85;;;;;;;;;;5032150;28;20056;-66
2023/09/08 13:19:40;;;;;;;6.07;5.13;;;;;;;;;;5018227;28;20393;-66
2023/09/08 13:22:05;;;;;;;6.20;4.63;;;;;;;;;;4995219;28;20097;-66
2023/09/08 13:24:30;;;;;;;7.15;4.85;;;;;;;;;;5012576;28;20041;-66
2023/09/08 13:26:56;;;;;;;5.80;4.53;;;;;;;;;;5012493;28;20069;-66
2023/09/08 13:29:21;;;;;;;5.68;4.63;;;;;;;;;;5008706;28;20037;-66
2023/09/08 13:31:47;;;;;;;7.57;4.85;;;;;;;;;;5012222;28;20152;-66
2023/09/08 13:34:13;;;;;;;5.45;4.95;;;;;;;;;;5012621;28;20454;-66
2023/09/08 13:36:38;;;;;;;5.72;4.80;;;;;;;;;;5012763;28;20034;-66
2023/09/08 13:39:04;;;;;;;5.13;4.68;;;;;;;;;;4995358;28;20499;-66
2023/09/08 13:41:49;;;;;;;5.88;4.38;;;;;;;;;;5012617;28;20104;-66
2023/09/08 13:44:21;;;;;;;5.50;4.15;;;;;;;;;;5012807;28;20025;-66
2023/09/08 13:46:47;;;;;;;5.35;4.80;;;;;;;;;;5012913;28;20041;-66
2023/09/08 13:49:13;;;;;;;6.80;4.93;;;;;;;;;;4994883;28;20026;-66
2023/09/08 13:51:39;;;;;;;5.50;5.00;;;;;;;;;;5013250;28;20026;-60
2023/09/08 13:54:04;;;;;;;5.93;5.03;;;;;;;;;;4995518;28;20457;-60
2023/09/08 13:56:30;;;;;;;5.40;4.90;;;;;;;;;;5012918;28;20033;-60
2023/09/08 13:58:55;;;;;;;8.07;4.95;;;;;;;;;;5012926;28;20128;-60
2023/09/08 14:01:21;;;;;;;7.20;4.75;;;;;;;;;;5013314;28;20037;-60
2023/09/08 14:03:46;;;;;;;6.40;4.35;;;;;;;;;;4995065;28;20057;-66
2023/09/08 14:06:12;;;;;;;6.07;5.13;;;;;;;;;;5013147;28;20030;-66
2023/09/08 14:08:37;;;;;;;4.40;4.00;;;;;;;;;;4998758;28;20040;-66
2023/09/08 14:11:03;;;;;;;5.20;4.70;;;;;;;;;;5032924;28;20546;-66
2023/09/08 14:13:28;;;;;;;6.53;4.90;;;;;;;;;;5015059;28;20504;-60
2023/09/08 14:15:54;;;;;;;9.95;4.82;;;;;;;;;;5015197;28;20053;-60
2023/09/08 14:18:19;;;;;;;4.90;4.35;;;;;;;;;;5032731;28;20025;-60
2023/09/08 14:20:44;;;;;;;5.60;4.68;;;;;;;;;;5031975;28;20033;-66
2023/09/08 14:23:10;;;;;;;6.10;4.43;;;;;;;;;;5034171;28;20040;-66
2023/09/08 14:25:36;;;;;;;11.45;4.55;;;;;;;;;;5036995;28;20120;-66
2023/09/08 14:28:04;;;;;;;5.72;4.18;;;;;;;;;;5036509;28;20059;-66
2023/09/08 14:30:29;;;;;;;5.68;4.85;;;;;;;;;;5034293;28;20484;-66
2023/09/08 14:32:55;;;;;;;9.05;6.07;;;;;;;;;;5033946;28;20124;-66